sensor_id;sensor_type;location;lat;lon;timestamp;temperature;humidity
53314;DHT22;39202;51.468;7.146;2023-08-01T00:02:23;28.20;45.10
53314;DHT22;39202;51.468;7.146;2023-08-01T00:07:27;28.20;45.10
53314;DHT22;39202;51.468;7.146;2023-08-01T00:12:29;28.20;45.10
53314;DHT22;39202;51.468;7.146;2023-08-01T00:17:31;28.20;45.10
53314;DHT22;39202;51.468;7.146;2023-08-01T00:22:34;28.20;45.10
53314;DHT22;39202;51.468;7.146;2023-08-01T00:27:36;28.20;45.10
53314;DHT22;39202;51.468;7.146;2023-08-01T00:32:38;28.20;45.10
53314;DHT22;39202;51.468;7.146;2023-08-01T00:37:41;28.20;45.10
53314;DHT22;39202;51.468;7.146;2023-08-01T00:42:42;28.20;45.10
53314;DHT22;39202;51.468;7.146;2023-08-01T00:47:44;28.20;45.10
53314;DHT22;39202;51.468;7.146;2023-08-01T00:52:47;28.10;45.00
53314;DHT22;39202;51.468;7.146;2023-08-01T00:57:50;28.20;45.10
53314;DHT22;39202;51.468;7.146;2023-08-01T01:02:53;28.20;45.10
53314;DHT22;39202;51.468;7.146;2023-08-01T01:07:56;28.20;45.20
53314;DHT22;39202;51.468;7.146;2023-08-01T01:12:58;28.20;45.20
53314;DHT22;39202;51.468;7.146;2023-08-01T01:17:59;28.20;45.10
53314;DHT22;39202;51.468;7.146;2023-08-01T01:23:03;28.20;45.20
53314;DHT22;39202;51.468;7.146;2023-08-01T01:28:06;28.10;45.10
53314;DHT22;39202;51.468;7.146;2023-08-01T01:33:09;28.10;45.10
53314;DHT22;39202;51.468;7.146;2023-08-01T01:38:13;28.20;45.20
53314;DHT22;39202;51.468;7.146;2023-08-01T01:43:15;28.10;45.10
53314;DHT22;39202;51.468;7.146;2023-08-01T01:48:16;28.20;45.20
53314;DHT22;39202;51.468;7.146;2023-08-01T01:53:19;28.10;45.10
53314;DHT22;39202;51.468;7.146;2023-08-01T01:58:21;28.10;45.10
53314;DHT22;39202;51.468;7.146;2023-08-01T02:03:23;28.10;45.10
53314;DHT22;39202;51.468;7.146;2023-08-01T02:08:26;28.10;45.10
53314;DHT22;39202;51.468;7.146;2023-08-01T02:13:29;28.10;45.10
53314;DHT22;39202;51.468;7.146;2023-08-01T02:18:30;28.00;45.10
53314;DHT22;39202;51.468;7.146;2023-08-01T02:23:34;28.00;45.00
53314;DHT22;39202;51.468;7.146;2023-08-01T02:28:38;28.10;45.10
53314;DHT22;39202;51.468;7.146;2023-08-01T02:33:39;28.10;45.10
53314;DHT22;39202;51.468;7.146;2023-08-01T02:38:42;28.10;45.10
53314;DHT22;39202;51.468;7.146;2023-08-01T02:43:44;28.00;45.10
53314;DHT22;39202;51.468;7.146;2023-08-01T02:48:46;28.10;45.10
53314;DHT22;39202;51.468;7.146;2023-08-01T02:53:49;28.00;45.10
53314;DHT22;39202;51.468;7.146;2023-08-01T02:58:51;28.00;45.10
53314;DHT22;39202;51.468;7.146;2023-08-01T03:03:52;28.00;45.10
53314;DHT22;39202;51.468;7.146;2023-08-01T03:08:55;28.00;45.10
53314;DHT22;39202;51.468;7.146;2023-08-01T03:13:57;28.00;45.10
53314;DHT22;39202;51.468;7.146;2023-08-01T03:18:59;28.00;45.10
53314;DHT22;39202;51.468;7.146;2023-08-01T03:24:06;28.00;45.10
53314;DHT22;39202;51.468;7.146;2023-08-01T03:29:09;28.00;45.10
53314;DHT22;39202;51.468;7.146;2023-08-01T03:34:10;28.00;45.10
53314;DHT22;39202;51.468;7.146;2023-08-01T03:39:14;28.00;45.10
53314;DHT22;39202;51.468;7.146;2023-08-01T03:44:16;27.90;45.00
53314;DHT22;39202;51.468;7.146;2023-08-01T03:49:17;28.00;45.10
53314;DHT22;39202;51.468;7.146;2023-08-01T03:54:21;28.00;45.10
53314;DHT22;39202;51.468;7.146;2023-08-01T03:59:22;28.00;45.10
53314;DHT22;39202;51.468;7.146;2023-08-01T04:04:24;27.90;45.00
53314;DHT22;39202;51.468;7.146;2023-08-01T04:09:27;27.90;45.10
53314;DHT22;39202;51.468;7.146;2023-08-01T04:14:29;27.90;45.10
53314;DHT22;39202;51.468;7.146;2023-08-01T04:19:31;27.90;45.10
53314;DHT22;39202;51.468;7.146;2023-08-01T04:24:34;27.90;45.10
53314;DHT22;39202;51.468;7.146;2023-08-01T04:29:35;27.90;45.10
53314;DHT22;39202;51.468;7.146;2023-08-01T04:34:37;27.90;45.10
53314;DHT22;39202;51.468;7.146;2023-08-01T04:39:40;27.90;45.10
53314;DHT22;39202;51.468;7.146;2023-08-01T04:44:42;27.90;45.10
53314;DHT22;39202;51.468;7.146;2023-08-01T04:49:44;27.90;45.10
53314;DHT22;39202;51.468;7.146;2023-08-01T04:54:47;27.90;45.10
53314;DHT22;39202;51.468;7.146;2023-08-01T04:59:49;28.00;45.10
53314;DHT22;39202;51.468;7.146;2023-08-01T05:04:51;27.90;45.10
53314;DHT22;39202;51.468;7.146;2023-08-01T05:09:54;27.90;45.10
53314;DHT22;39202;51.468;7.146;2023-08-01T05:14:56;27.90;45.10
53314;DHT22;39202;51.468;7.146;2023-08-01T05:19:57;27.90;45.20
53314;DHT22;39202;51.468;7.146;2023-08-01T05:25:01;27.90;45.20
53314;DHT22;39202;51.468;7.146;2023-08-01T05:30:05;27.90;45.10
53314;DHT22;39202;51.468;7.146;2023-08-01T05:35:07;27.80;45.10
53314;DHT22;39202;51.468;7.146;2023-08-01T05:40:11;27.80;45.10
53314;DHT22;39202;51.468;7.146;2023-08-01T05:45:13;27.80;45.10
53314;DHT22;39202;51.468;7.146;2023-08-01T05:50:15;27.80;45.10
53314;DHT22;39202;51.468;7.146;2023-08-01T05:55:18;27.80;45.10
53314;DHT22;39202;51.468;7.146;2023-08-01T06:00:20;27.90;45.20
53314;DHT22;39202;51.468;7.146;2023-08-01T06:05:22;27.80;45.10
53314;DHT22;39202;51.468;7.146;2023-08-01T06:10:25;27.80;45.10
53314;DHT22;39202;51.468;7.146;2023-08-01T06:15:27;27.80;45.10
53314;DHT22;39202;51.468;7.146;2023-08-01T06:20:29;27.80;45.10
53314;DHT22;39202;51.468;7.146;2023-08-01T06:25:32;27.80;45.30
53314;DHT22;39202;51.468;7.146;2023-08-01T06:30:34;27.80;45.30
53314;DHT22;39202;51.468;7.146;2023-08-01T06:35:35;27.80;45.30
53314;DHT22;39202;51.468;7.146;2023-08-01T06:40:41;27.80;45.30
53314;DHT22;39202;51.468;7.146;2023-08-01T06:45:43;27.80;45.40
53314;DHT22;39202;51.468;7.146;2023-08-01T06:50:45;27.90;45.40
53314;DHT22;39202;51.468;7.146;2023-08-01T06:55:48;27.90;45.50
53314;DHT22;39202;51.468;7.146;2023-08-01T07:00:50;27.90;45.40
53314;DHT22;39202;51.468;7.146;2023-08-01T07:05:52;27.90;45.40
53314;DHT22;39202;51.468;7.146;2023-08-01T07:10:55;27.80;45.40
53314;DHT22;39202;51.468;7.146;2023-08-01T07:15:57;28.00;45.60
53314;DHT22;39202;51.468;7.146;2023-08-01T07:21:02;28.00;45.60
53314;DHT22;39202;51.468;7.146;2023-08-01T07:26:05;28.00;45.70
53314;DHT22;39202;51.468;7.146;2023-08-01T07:31:07;28.00;45.60
53314;DHT22;39202;51.468;7.146;2023-08-01T07:36:09;27.40;45.20
53314;DHT22;39202;51.468;7.146;2023-08-01T07:41:12;28.10;45.60
53314;DHT22;39202;51.468;7.146;2023-08-01T07:46:14;28.10;45.70
53314;DHT22;39202;51.468;7.146;2023-08-01T07:51:16;28.10;45.70
53314;DHT22;39202;51.468;7.146;2023-08-01T07:56:19;28.80;46.10
53314;DHT22;39202;51.468;7.146;2023-08-01T08:01:21;28.10;45.70
53314;DHT22;39202;51.468;7.146;2023-08-01T08:06:23;28.10;45.70
53314;DHT22;39202;51.468;7.146;2023-08-01T08:11:26;28.10;45.70
53314;DHT22;39202;51.468;7.146;2023-08-01T08:16:28;28.20;45.80
53314;DHT22;39202;51.468;7.146;2023-08-01T08:21:29;28.20;45.80
53314;DHT22;39202;51.468;7.146;2023-08-01T08:26:32;28.10;45.80
53314;DHT22;39202;51.468;7.146;2023-08-01T08:31:37;28.20;45.90
53314;DHT22;39202;51.468;7.146;2023-08-01T08:36:39;28.20;45.80
53314;DHT22;39202;51.468;7.146;2023-08-01T08:41:46;28.30;45.90
53314;DHT22;39202;51.468;7.146;2023-08-01T08:46:50;28.30;45.90
53314;DHT22;39202;51.468;7.146;2023-08-01T08:51:52;28.40;45.90
53314;DHT22;39202;51.468;7.146;2023-08-01T08:56:58;28.40;45.80
53314;DHT22;39202;51.468;7.146;2023-08-01T09:02:01;28.40;45.80
53314;DHT22;39202;51.468;7.146;2023-08-01T09:07:08;28.50;45.70
53314;DHT22;39202;51.468;7.146;2023-08-01T09:12:13;28.50;45.90
53314;DHT22;39202;51.468;7.146;2023-08-01T09:17:15;28.50;45.90
53314;DHT22;39202;51.468;7.146;2023-08-01T09:22:18;28.60;46.00
53314;DHT22;39202;51.468;7.146;2023-08-01T09:27:22;28.60;46.00
53314;DHT22;39202;51.468;7.146;2023-08-01T09:32:24;28.70;46.00
53314;DHT22;39202;51.468;7.146;2023-08-01T09:37:26;28.70;45.80
53314;DHT22;39202;51.468;7.146;2023-08-01T09:42:38;28.80;45.90
53314;DHT22;39202;51.468;7.146;2023-08-01T09:47:41;28.90;45.90
53314;DHT22;39202;51.468;7.146;2023-08-01T09:52:43;28.90;45.80
53314;DHT22;39202;51.468;7.146;2023-08-01T09:57:49;29.00;45.70
53314;DHT22;39202;51.468;7.146;2023-08-01T10:02:52;29.00;45.70
53314;DHT22;39202;51.468;7.146;2023-08-01T10:07:56;29.00;45.70
53314;DHT22;39202;51.468;7.146;2023-08-01T10:13:01;29.00;45.70
53314;DHT22;39202;51.468;7.146;2023-08-01T10:18:04;29.00;45.60
53314;DHT22;39202;51.468;7.146;2023-08-01T10:23:06;29.00;45.40
53314;DHT22;39202;51.468;7.146;2023-08-01T10:28:10;29.00;45.30
53314;DHT22;39202;51.468;7.146;2023-08-01T10:33:12;29.00;45.20
53314;DHT22;39202;51.468;7.146;2023-08-01T10:38:14;29.00;45.20
53314;DHT22;39202;51.468;7.146;2023-08-01T10:43:21;29.10;45.30
53314;DHT22;39202;51.468;7.146;2023-08-01T10:48:23;29.00;45.30
53314;DHT22;39202;51.468;7.146;2023-08-01T10:53:25;29.00;45.30
53314;DHT22;39202;51.468;7.146;2023-08-01T10:58:28;29.00;46.00
53314;DHT22;39202;51.468;7.146;2023-08-01T11:03:36;29.00;45.30
53314;DHT22;39202;51.468;7.146;2023-08-01T11:08:39;29.10;45.30
53314;DHT22;39202;51.468;7.146;2023-08-01T11:13:50;29.00;45.10
53314;DHT22;39202;51.468;7.146;2023-08-01T11:18:52;29.10;45.10
53314;DHT22;39202;51.468;7.146;2023-08-01T11:23:54;29.10;45.10
53314;DHT22;39202;51.468;7.146;2023-08-01T11:29:01;29.10;45.00
53314;DHT22;39202;51.468;7.146;2023-08-01T11:34:03;29.10;45.00
53314;DHT22;39202;51.468;7.146;2023-08-01T11:39:05;29.00;44.80
53314;DHT22;39202;51.468;7.146;2023-08-01T11:44:08;29.10;45.60
53314;DHT22;39202;51.468;7.146;2023-08-01T11:49:14;29.00;44.80
53314;DHT22;39202;51.468;7.146;2023-08-01T11:54:16;29.00;44.90
53314;DHT22;39202;51.468;7.146;2023-08-01T11:59:19;29.00;45.00
53314;DHT22;39202;51.468;7.146;2023-08-01T12:04:24;29.00;45.10
53314;DHT22;39202;51.468;7.146;2023-08-01T12:09:31;29.00;45.00
53314;DHT22;39202;51.468;7.146;2023-08-01T12:14:38;29.10;45.10
53314;DHT22;39202;51.468;7.146;2023-08-01T12:19:40;29.10;45.10
53314;DHT22;39202;51.468;7.146;2023-08-01T12:24:42;29.10;45.00
53314;DHT22;39202;51.468;7.146;2023-08-01T12:29:46;29.20;45.00
53314;DHT22;39202;51.468;7.146;2023-08-01T12:34:48;29.10;44.90
53314;DHT22;39202;51.468;7.146;2023-08-01T12:39:49;29.10;45.60
53314;DHT22;39202;51.468;7.146;2023-08-01T12:44:55;29.00;45.00
53314;DHT22;39202;51.468;7.146;2023-08-01T12:49:57;29.00;45.10
53314;DHT22;39202;51.468;7.146;2023-08-01T12:54:58;29.00;45.80
53314;DHT22;39202;51.468;7.146;2023-08-01T13:00:02;29.00;45.20
53314;DHT22;39202;51.468;7.146;2023-08-01T13:05:04;28.90;45.20
53314;DHT22;39202;51.468;7.146;2023-08-01T13:10:07;28.90;45.30
53314;DHT22;39202;51.468;7.146;2023-08-01T13:15:10;28.90;45.40
53314;DHT22;39202;51.468;7.146;2023-08-01T13:20:12;28.80;45.50
53314;DHT22;39202;51.468;7.146;2023-08-01T13:25:14;28.80;45.50
53314;DHT22;39202;51.468;7.146;2023-08-01T13:30:17;28.80;45.60
53314;DHT22;39202;51.468;7.146;2023-08-01T13:35:19;28.90;45.60
53314;DHT22;39202;51.468;7.146;2023-08-01T13:40:21;28.90;45.60
53314;DHT22;39202;51.468;7.146;2023-08-01T13:45:24;28.90;45.40
53314;DHT22;39202;51.468;7.146;2023-08-01T13:50:28;28.90;45.30
53314;DHT22;39202;51.468;7.146;2023-08-01T13:55:32;28.80;45.30
53314;DHT22;39202;51.468;7.146;2023-08-01T14:00:35;28.70;45.20
53314;DHT22;39202;51.468;7.146;2023-08-01T14:05:37;28.70;45.30
53314;DHT22;39202;51.468;7.146;2023-08-01T14:10:38;28.60;45.30
53314;DHT22;39202;51.468;7.146;2023-08-01T14:15:41;28.50;45.30
53314;DHT22;39202;51.468;7.146;2023-08-01T14:20:43;28.60;45.40
53314;DHT22;39202;51.468;7.146;2023-08-01T14:25:45;28.60;45.50
53314;DHT22;39202;51.468;7.146;2023-08-01T14:30:48;28.60;45.50
53314;DHT22;39202;51.468;7.146;2023-08-01T14:35:49;28.60;45.50
53314;DHT22;39202;51.468;7.146;2023-08-01T14:40:52;28.60;45.40
53314;DHT22;39202;51.468;7.146;2023-08-01T14:45:55;28.60;45.40
53314;DHT22;39202;51.468;7.146;2023-08-01T14:50:57;28.60;45.40
53314;DHT22;39202;51.468;7.146;2023-08-01T14:55:59;28.60;45.40
53314;DHT22;39202;51.468;7.146;2023-08-01T15:01:04;28.60;45.40
53314;DHT22;39202;51.468;7.146;2023-08-01T15:06:07;28.60;45.40
53314;DHT22;39202;51.468;7.146;2023-08-01T15:11:09;28.60;45.50
53314;DHT22;39202;51.468;7.146;2023-08-01T15:16:12;28.60;45.50
53314;DHT22;39202;51.468;7.146;2023-08-01T15:21:14;28.60;45.50
53314;DHT22;39202;51.468;7.146;2023-08-01T15:26:16;28.60;45.40
53314;DHT22;39202;51.468;7.146;2023-08-01T15:31:20;28.60;45.30
53314;DHT22;39202;51.468;7.146;2023-08-01T15:36:26;28.50;45.30
53314;DHT22;39202;51.468;7.146;2023-08-01T15:41:28;28.50;45.30
53314;DHT22;39202;51.468;7.146;2023-08-01T15:46:32;28.50;45.30
53314;DHT22;39202;51.468;7.146;2023-08-01T15:51:34;28.50;45.30
53314;DHT22;39202;51.468;7.146;2023-08-01T15:56:36;28.50;45.30
53314;DHT22;39202;51.468;7.146;2023-08-01T16:01:39;28.60;45.40
53314;DHT22;39202;51.468;7.146;2023-08-01T16:06:41;28.60;45.30
53314;DHT22;39202;51.468;7.146;2023-08-01T16:11:42;28.60;45.30
53314;DHT22;39202;51.468;7.146;2023-08-01T16:16:46;28.60;45.30
53314;DHT22;39202;51.468;7.146;2023-08-01T16:21:47;28.60;45.30
53314;DHT22;39202;51.468;7.146;2023-08-01T16:26:49;28.60;45.30
53314;DHT22;39202;51.468;7.146;2023-08-01T16:31:52;28.60;45.30
53314;DHT22;39202;51.468;7.146;2023-08-01T16:36:54;28.60;45.60
53314;DHT22;39202;51.468;7.146;2023-08-01T16:41:56;28.60;45.20
53314;DHT22;39202;51.468;7.146;2023-08-01T16:46:59;28.60;45.20
53314;DHT22;39202;51.468;7.146;2023-08-01T16:52:00;28.60;45.20
53314;DHT22;39202;51.468;7.146;2023-08-01T16:57:02;28.60;45.20
53314;DHT22;39202;51.468;7.146;2023-08-01T17:02:06;28.60;45.20
53314;DHT22;39202;51.468;7.146;2023-08-01T17:07:09;28.60;45.10
53314;DHT22;39202;51.468;7.146;2023-08-01T17:12:10;28.60;45.20
53314;DHT22;39202;51.468;7.146;2023-08-01T17:17:13;28.60;45.10
53314;DHT22;39202;51.468;7.146;2023-08-01T17:22:15;28.60;45.10
53314;DHT22;39202;51.468;7.146;2023-08-01T17:27:17;28.60;45.10
53314;DHT22;39202;51.468;7.146;2023-08-01T17:32:21;28.60;45.10
53314;DHT22;39202;51.468;7.146;2023-08-01T17:37:22;28.60;45.10
53314;DHT22;39202;51.468;7.146;2023-08-01T17:42:24;28.60;45.10
53314;DHT22;39202;51.468;7.146;2023-08-01T17:47:27;28.60;45.10
53314;DHT22;39202;51.468;7.146;2023-08-01T17:52:29;28.60;45.10
53314;DHT22;39202;51.468;7.146;2023-08-01T17:57:31;28.60;45.10
53314;DHT22;39202;51.468;7.146;2023-08-01T18:02:34;28.60;45.10
53314;DHT22;39202;51.468;7.146;2023-08-01T18:07:35;28.60;45.10
53314;DHT22;39202;51.468;7.146;2023-08-01T18:12:37;28.50;45.10
53314;DHT22;39202;51.468;7.146;2023-08-01T18:17:40;28.60;45.10
53314;DHT22;39202;51.468;7.146;2023-08-01T18:22:42;28.50;45.10
53314;DHT22;39202;51.468;7.146;2023-08-01T18:27:44;28.50;45.10
53314;DHT22;39202;51.468;7.146;2023-08-01T18:32:47;28.50;45.10
53314;DHT22;39202;51.468;7.146;2023-08-01T18:37:49;28.50;45.10
53314;DHT22;39202;51.468;7.146;2023-08-01T18:42:51;28.50;45.00
53314;DHT22;39202;51.468;7.146;2023-08-01T18:47:54;28.50;45.00
53314;DHT22;39202;51.468;7.146;2023-08-01T18:52:55;28.50;45.00
53314;DHT22;39202;51.468;7.146;2023-08-01T18:57:57;28.50;45.00
53314;DHT22;39202;51.468;7.146;2023-08-01T19:03:03;28.50;45.00
53314;DHT22;39202;51.468;7.146;2023-08-01T19:08:05;28.50;44.90
53314;DHT22;39202;51.468;7.146;2023-08-01T19:13:07;28.50;44.90
53314;DHT22;39202;51.468;7.146;2023-08-01T19:18:10;28.50;45.00
53314;DHT22;39202;51.468;7.146;2023-08-01T19:23:12;28.50;45.00
53314;DHT22;39202;51.468;7.146;2023-08-01T19:28:14;28.50;45.00
53314;DHT22;39202;51.468;7.146;2023-08-01T19:33:17;28.50;45.00
53314;DHT22;39202;51.468;7.146;2023-08-01T19:38:18;28.50;45.00
53314;DHT22;39202;51.468;7.146;2023-08-01T19:43:20;28.40;44.90
53314;DHT22;39202;51.468;7.146;2023-08-01T19:48:23;28.50;45.00
53314;DHT22;39202;51.468;7.146;2023-08-01T19:53:25;28.40;45.00
53314;DHT22;39202;51.468;7.146;2023-08-01T19:58:27;28.40;45.00
53314;DHT22;39202;51.468;7.146;2023-08-01T20:03:30;28.40;45.00
53314;DHT22;39202;51.468;7.146;2023-08-01T20:08:32;28.40;45.00
53314;DHT22;39202;51.468;7.146;2023-08-01T20:13:34;28.40;45.00
53314;DHT22;39202;51.468;7.146;2023-08-01T20:18:37;28.40;45.00
53314;DHT22;39202;51.468;7.146;2023-08-01T20:23:39;28.40;45.00
53314;DHT22;39202;51.468;7.146;2023-08-01T20:28:41;28.30;45.00
53314;DHT22;39202;51.468;7.146;2023-08-01T20:33:44;28.30;45.00
53314;DHT22;39202;51.468;7.146;2023-08-01T20:38:46;28.30;45.00
53314;DHT22;39202;51.468;7.146;2023-08-01T20:43:47;28.30;45.00
53314;DHT22;39202;51.468;7.146;2023-08-01T20:48:51;28.30;45.00
53314;DHT22;39202;51.468;7.146;2023-08-01T20:53:52;28.30;45.00
53314;DHT22;39202;51.468;7.146;2023-08-01T20:58:54;28.30;45.00
53314;DHT22;39202;51.468;7.146;2023-08-01T21:03:57;28.30;45.00
53314;DHT22;39202;51.468;7.146;2023-08-01T21:08:59;28.30;45.00
53314;DHT22;39202;51.468;7.146;2023-08-01T21:14:00;28.30;45.00
53314;DHT22;39202;51.468;7.146;2023-08-01T21:19:04;28.30;45.00
53314;DHT22;39202;51.468;7.146;2023-08-01T21:24:05;28.30;45.00
53314;DHT22;39202;51.468;7.146;2023-08-01T21:29:09;28.30;45.00
53314;DHT22;39202;51.468;7.146;2023-08-01T21:34:12;28.30;45.00
53314;DHT22;39202;51.468;7.146;2023-08-01T21:39:14;28.30;45.00
53314;DHT22;39202;51.468;7.146;2023-08-01T21:44:15;28.30;45.00
53314;DHT22;39202;51.468;7.146;2023-08-01T21:49:18;28.20;44.90
53314;DHT22;39202;51.468;7.146;2023-08-01T21:54:20;28.20;44.90
53314;DHT22;39202;51.468;7.146;2023-08-01T21:59:22;28.20;44.90
53314;DHT22;39202;51.468;7.146;2023-08-01T22:04:25;28.20;45.00
53314;DHT22;39202;51.468;7.146;2023-08-01T22:09:26;28.20;45.00
53314;DHT22;39202;51.468;7.146;2023-08-01T22:14:28;28.20;45.00
53314;DHT22;39202;51.468;7.146;2023-08-01T22:19:31;28.20;45.00
53314;DHT22;39202;51.468;7.146;2023-08-01T22:24:33;28.20;45.00
53314;DHT22;39202;51.468;7.146;2023-08-01T22:29:35;28.20;45.00
53314;DHT22;39202;51.468;7.146;2023-08-01T22:34:38;28.20;45.00
53314;DHT22;39202;51.468;7.146;2023-08-01T22:39:39;28.10;44.90
53314;DHT22;39202;51.468;7.146;2023-08-01T22:44:41;28.10;45.00
53314;DHT22;39202;51.468;7.146;2023-08-01T22:49:44;28.10;45.00
53314;DHT22;39202;51.468;7.146;2023-08-01T22:54:46;28.10;45.00
53314;DHT22;39202;51.468;7.146;2023-08-01T22:59:48;28.10;45.00
53314;DHT22;39202;51.468;7.146;2023-08-01T23:04:51;28.10;45.00
53314;DHT22;39202;51.468;7.146;2023-08-01T23:09:57;28.10;45.00
53314;DHT22;39202;51.468;7.146;2023-08-01T23:15:01;28.10;45.00
53314;DHT22;39202;51.468;7.146;2023-08-01T23:20:05;28.10;45.00
53314;DHT22;39202;51.468;7.146;2023-08-01T23:25:07;28.10;45.00
53314;DHT22;39202;51.468;7.146;2023-08-01T23:30:09;28.10;45.00
53314;DHT22;39202;51.468;7.146;2023-08-01T23:35:12;28.10;45.00
53314;DHT22;39202;51.468;7.146;2023-08-01T23:40:15;28.00;45.00
53314;DHT22;39202;51.468;7.146;2023-08-01T23:45:17;28.00;45.00
53314;DHT22;39202;51.468;7.146;2023-08-01T23:50:20;28.00;45.00
53314;DHT22;39202;51.468;7.146;2023-08-01T23:55:22;28.00;45.00
